0NK1 weather

Spring Brook Airport
Central Square, New York, United States

Public forecast

Using degrees Fahrenheit for public forecast. Weather courtesy of forecast.io.

Closest aviation weather report (METAR) to Spring Brook Airport

Closest report is Oswego County Airport, 7.4 nm (13.6 km) W. Retrieved 2019/11/19 13:54 UTC (20 minutes ago):

KFZY 191354Z AUTO 31005KT 10SM BKN032 02/M02 A2979 RMK AO2 SLP093 T00171022

Closest aviation forecast (TAF) to Spring Brook Airport

Closest forecast is Syracuse Hancock International Airport, 15.8 nm (29.3 km) SSE. Retrieved 2019/11/19 12:40 UTC (2 hours ago):

TAF KSYR 191138Z 1912/2012 29004KT P6SM BKN035 FM200500 27003KT P6SM BKN030